createdAt,value
2018-06-22T00:00:05.101Z,91.53
2018-06-22T00:01:05.097Z,91.05
2018-06-22T00:02:05.090Z,91.14
2018-06-22T00:03:05.072Z,91.34
2018-06-22T00:04:05.071Z,91.05
2018-06-22T00:05:05.060Z,91.14
2018-06-22T00:06:05.051Z,91.24
2018-06-22T00:07:05.044Z,91.82
2018-06-22T00:08:05.036Z,90.38
2018-06-22T00:09:05.024Z,89.80
2018-06-22T00:10:05.017Z,90.28
2018-06-22T00:11:05.007Z,91.14
2018-06-22T00:12:05.001Z,90.57
2018-06-22T00:13:04.984Z,90.57
2018-06-22T00:14:04.985Z,90.76
2018-06-22T00:15:04.967Z,90.09
2018-06-22T00:16:04.964Z,89.80
2018-06-22T00:17:04.958Z,89.61
2018-06-22T00:18:04.944Z,89.90
2018-06-22T00:19:04.940Z,90.19
2018-06-22T00:20:04.928Z,89.42
2018-06-22T00:21:04.924Z,88.75
2018-06-22T00:22:04.911Z,89.51
2018-06-22T00:23:04.900Z,89.28
2018-06-22T00:24:04.894Z,89.86
2018-06-22T00:25:04.884Z,90.14
2018-06-22T00:26:04.876Z,89.57
2018-06-22T00:27:04.866Z,89.37
2018-06-22T00:28:04.855Z,89.95
2018-06-22T00:29:04.848Z,90.14
2018-06-22T00:30:04.845Z,90.14
2018-06-22T00:31:04.830Z,89.95
2018-06-22T00:32:04.822Z,90.14
2018-06-22T00:33:04.811Z,90.14
2018-06-22T00:34:04.802Z,90.14
2018-06-22T00:35:04.796Z,90.53
2018-06-22T00:36:04.788Z,89.95
2018-06-22T00:37:04.774Z,89.76
2018-06-22T00:38:04.772Z,89.57
2018-06-22T00:39:04.763Z,89.28
2018-06-22T00:40:04.753Z,88.80
2018-06-22T00:41:04.748Z,88.47
2018-06-22T00:42:04.732Z,88.95
2018-06-22T00:43:04.723Z,88.47
2018-06-22T00:44:04.719Z,88.85
2018-06-22T00:45:04.708Z,88.51
2018-06-22T00:46:04.696Z,88.37
2018-06-22T00:47:04.688Z,87.99
2018-06-22T00:48:04.680Z,88.47
2018-06-22T00:49:04.670Z,88.90
2018-06-22T00:50:04.664Z,87.80
2018-06-22T00:51:04.648Z,88.47
2018-06-22T00:52:04.636Z,87.80
2018-06-22T00:53:04.630Z,87.51
2018-06-22T00:54:04.625Z,86.27
2018-06-22T00:55:04.613Z,86.94
2018-06-22T00:56:04.607Z,86.84
2018-06-22T00:57:04.599Z,86.65
2018-06-22T00:58:04.584Z,86.74
2018-06-22T00:59:04.575Z,86.65
2018-06-22T01:00:04.569Z,86.84
2018-06-22T01:01:04.555Z,85.84
2018-06-22T01:02:04.548Z,87.32
2018-06-22T01:03:04.538Z,87.47
2018-06-22T01:04:04.528Z,87.47
2018-06-22T01:05:04.520Z,86.17
2018-06-22T01:06:04.509Z,86.55
2018-06-22T01:07:04.501Z,86.36
2018-06-22T01:08:04.495Z,85.12
2018-06-22T01:09:04.485Z,86.65
2018-06-22T01:10:04.466Z,86.65
2018-06-22T01:11:04.462Z,87.51
2018-06-22T01:12:04.454Z,88.66
2018-06-22T01:13:04.446Z,89.33
2018-06-22T01:14:04.440Z,89.23
2018-06-22T01:15:04.426Z,89.81
2018-06-22T01:16:04.428Z,88.56
2018-06-22T01:17:04.406Z,88.85
2018-06-22T01:18:04.409Z,88.81
2018-06-22T01:19:04.385Z,89.29
2018-06-22T01:20:04.375Z,89.38
2018-06-22T01:21:04.371Z,88.23
2018-06-22T01:22:04.362Z,89.24
2018-06-22T01:23:04.351Z,89.43
2018-06-22T01:24:04.341Z,90.25
2018-06-22T01:25:04.331Z,91.11
2018-06-22T01:26:04.324Z,90.92
2018-06-22T01:27:04.314Z,91.02
2018-06-22T01:28:04.301Z,90.82
2018-06-22T01:29:04.292Z,90.92
2018-06-22T01:30:04.283Z,91.11
2018-06-22T01:31:04.266Z,90.82
2018-06-22T01:32:04.261Z,90.25
2018-06-22T01:33:04.261Z,89.96
2018-06-22T01:34:04.245Z,89.29
2018-06-22T01:35:04.235Z,89.29
2018-06-22T01:36:04.225Z,89.48
2018-06-22T01:37:04.212Z,89.53
2018-06-22T01:38:04.201Z,90.11
2018-06-22T01:39:04.196Z,89.73
2018-06-22T01:40:04.180Z,89.34
2018-06-22T01:41:04.179Z,89.63
2018-06-22T01:42:04.162Z,89.34
2018-06-22T01:43:04.159Z,88.48
2018-06-22T01:44:04.145Z,89.01
2018-06-22T01:45:04.139Z,88.87
2018-06-22T01:46:04.121Z,88.39
2018-06-22T01:47:04.115Z,87.86
2018-06-22T01:48:04.103Z,88.24
2018-06-22T01:49:04.094Z,87.76
2018-06-22T01:50:04.084Z,87.57
2018-06-22T01:51:04.076Z,87.57
2018-06-22T01:52:04.070Z,86.90
2018-06-22T01:53:04.054Z,86.80
2018-06-22T01:54:04.044Z,86.90
2018-06-22T01:55:04.028Z,86.96
2018-06-22T01:56:04.022Z,87.34
2018-06-22T01:57:04.014Z,87.91
2018-06-22T01:58:04.030Z,87.43
2018-06-22T01:59:03.993Z,87.91
2018-06-22T02:00:03.981Z,87.72
2018-06-22T02:01:03.977Z,88.58
2018-06-22T02:02:03.964Z,88.39
2018-06-22T02:03:03.950Z,87.91
2018-06-22T02:04:03.940Z,87.91
2018-06-22T02:05:03.930Z,88.01
2018-06-22T02:06:03.920Z,87.82
2018-06-22T02:07:03.910Z,87.86
2018-06-22T02:08:03.905Z,87.48
2018-06-22T02:09:03.890Z,86.90
2018-06-22T02:10:03.880Z,86.14
2018-06-22T02:11:03.871Z,85.57
2018-06-22T02:12:03.863Z,85.81
2018-06-22T02:13:03.852Z,86.38
2018-06-22T02:14:03.842Z,86.47
2018-06-22T02:15:03.829Z,86.47
2018-06-22T02:16:03.823Z,86.96
2018-06-22T02:17:03.813Z,86.38
2018-06-22T02:18:03.801Z,86.76
2018-06-22T02:19:03.791Z,86.38
2018-06-22T02:20:03.776Z,87.01
2018-06-22T02:21:03.768Z,87.05
2018-06-22T02:22:03.762Z,86.76
2018-06-22T02:23:03.746Z,86.57
2018-06-22T02:24:03.738Z,86.72
2018-06-22T02:25:03.732Z,86.72
2018-06-22T02:26:03.720Z,87.10
2018-06-22T02:27:03.720Z,87.87
2018-06-22T02:28:03.698Z,88.15
2018-06-22T02:29:03.688Z,88.63
2018-06-22T02:30:03.677Z,87.68
2018-06-22T02:31:03.669Z,88.49
2018-06-22T02:32:03.657Z,88.15
2018-06-22T02:33:03.647Z,88.78
2018-06-22T02:34:03.639Z,88.30
2018-06-22T02:35:03.621Z,88.30
2018-06-22T02:36:03.617Z,88.40
2018-06-22T02:37:03.605Z,88.30
2018-06-22T02:38:03.598Z,88.59
2018-06-22T02:39:03.582Z,88.78
2018-06-22T02:40:03.574Z,88.30
2018-06-22T02:41:03.554Z,88.11
2018-06-22T02:42:03.550Z,87.63
2018-06-22T02:43:03.544Z,88.11
2018-06-22T02:44:03.532Z,88.11
2018-06-22T02:45:03.523Z,88.49
2018-06-22T02:46:03.509Z,88.87
2018-06-22T02:47:03.501Z,88.78
2018-06-22T02:48:03.489Z,88.49
2018-06-22T02:49:03.473Z,89.25
2018-06-22T02:50:03.471Z,89.54
2018-06-22T02:51:03.457Z,89.16
2018-06-22T02:52:03.448Z,88.68
2018-06-22T02:53:03.435Z,88.87
2018-06-22T02:54:03.420Z,88.49
2018-06-22T02:55:03.406Z,89.12
2018-06-22T02:56:03.400Z,89.97
2018-06-22T02:57:03.388Z,89.40
2018-06-22T02:58:03.388Z,90.17
2018-06-22T02:59:03.369Z,90.40
2018-06-22T03:00:03.364Z,89.78
2018-06-22T03:01:03.349Z,89.78
2018-06-22T03:02:03.340Z,90.07
2018-06-22T03:03:03.328Z,89.69
2018-06-22T03:04:03.321Z,89.59
2018-06-22T03:05:03.309Z,89.88
2018-06-22T03:06:03.302Z,90.31
2018-06-22T03:07:03.289Z,90.55
2018-06-22T03:08:03.273Z,89.45
2018-06-22T03:09:03.265Z,89.88
2018-06-22T03:10:03.250Z,89.78
2018-06-22T03:11:03.238Z,90.07
2018-06-22T03:12:03.232Z,89.73
2018-06-22T03:13:03.214Z,89.40
2018-06-22T03:14:03.211Z,88.92
2018-06-22T03:15:03.207Z,89.40
2018-06-22T03:16:03.211Z,89.50
2018-06-22T03:17:03.176Z,89.88
2018-06-22T03:18:03.170Z,89.69
2018-06-22T03:19:03.160Z,90.45
2018-06-22T03:20:03.138Z,89.88
2018-06-22T03:21:03.139Z,90.17
2018-06-22T03:22:03.126Z,89.69
2018-06-22T03:23:03.104Z,90.17
2018-06-22T03:24:03.099Z,89.59
2018-06-22T03:25:03.089Z,89.88
2018-06-22T03:26:03.076Z,89.59
2018-06-22T03:27:03.069Z,89.40
2018-06-22T03:28:03.053Z,89.31
2018-06-22T03:29:03.041Z,89.16
2018-06-22T03:30:03.034Z,88.87
2018-06-22T03:31:03.025Z,88.30
2018-06-22T03:32:03.043Z,87.73
2018-06-22T03:33:03.003Z,88.59
2018-06-22T03:34:02.987Z,87.92
2018-06-22T03:35:02.980Z,88.11
2018-06-22T03:36:02.968Z,88.01
2018-06-22T03:37:02.951Z,87.82
2018-06-22T03:38:02.940Z,87.73
2018-06-22T03:39:02.933Z,87.15
2018-06-22T03:40:02.921Z,87.25
2018-06-22T03:41:02.917Z,86.96
2018-06-22T03:42:02.901Z,87.25
2018-06-22T03:43:02.890Z,87.15
2018-06-22T03:44:02.872Z,86.68
2018-06-22T03:45:02.868Z,86.49
2018-06-22T03:46:02.852Z,86.20
2018-06-22T03:47:02.842Z,85.67
2018-06-22T03:48:02.833Z,85.67
2018-06-22T03:49:02.824Z,85.29
2018-06-22T03:50:02.809Z,85.48
2018-06-22T03:51:02.805Z,85.38
2018-06-22T03:52:02.791Z,84.23
2018-06-22T03:53:02.781Z,84.52
2018-06-22T03:54:02.771Z,84.23
2018-06-22T03:55:02.761Z,84.72
2018-06-22T03:56:02.748Z,84.43
2018-06-22T03:57:02.739Z,84.43
2018-06-22T03:58:02.733Z,84.33
2018-06-22T03:59:02.714Z,84.72
2018-06-22T04:00:02.706Z,84.33
2018-06-22T04:01:02.698Z,84.43
2018-06-22T04:02:02.686Z,84.62
2018-06-22T04:03:02.672Z,84.62
2018-06-22T04:04:02.664Z,84.72
2018-06-22T04:05:02.653Z,84.52
2018-06-22T04:06:02.640Z,84.43
2018-06-22T04:07:02.625Z,84.91
2018-06-22T04:08:02.671Z,85.67
2018-06-22T04:09:02.649Z,84.81
2018-06-22T04:10:02.596Z,84.39
2018-06-22T04:11:02.589Z,84.52
2018-06-22T04:12:02.573Z,84.43
2018-06-22T04:13:02.560Z,84.23
2018-06-22T04:14:02.556Z,84.43
2018-06-22T04:15:02.541Z,84.48
2018-06-22T04:16:02.536Z,84.39
2018-06-22T04:17:02.524Z,84.86
2018-06-22T04:18:02.509Z,84.96
2018-06-22T04:19:02.499Z,85.25
2018-06-22T04:20:02.491Z,84.77
2018-06-22T04:21:02.481Z,84.77
2018-06-22T04:22:02.471Z,85.34
2018-06-22T04:23:02.458Z,85.44
2018-06-22T04:24:02.446Z,85.44
2018-06-22T04:25:02.433Z,85.53
2018-06-22T04:26:02.419Z,85.63
2018-06-22T04:27:02.412Z,86.20
2018-06-22T04:28:02.405Z,86.10
2018-06-22T04:29:02.388Z,84.86
2018-06-22T04:30:02.382Z,84.39
2018-06-22T04:31:02.368Z,84.39
2018-06-22T04:32:02.361Z,84.20
2018-06-22T04:33:02.351Z,84.48
2018-06-22T04:34:02.344Z,84.29
2018-06-22T04:35:02.332Z,84.29
2018-06-22T04:36:02.321Z,83.81
2018-06-22T04:37:02.305Z,83.72
2018-06-22T04:38:02.295Z,83.05
2018-06-22T04:39:02.280Z,83.18
2018-06-22T04:40:02.274Z,83.18
2018-06-22T04:41:02.258Z,83.76
2018-06-22T04:42:02.252Z,83.57
2018-06-22T04:43:02.237Z,83.38
2018-06-22T04:44:02.234Z,83.28
2018-06-22T04:45:02.221Z,83.28
2018-06-22T04:46:02.210Z,82.61
2018-06-22T04:47:02.197Z,82.61
2018-06-22T04:48:02.189Z,82.32
2018-06-22T04:49:02.177Z,82.61
2018-06-22T04:50:02.170Z,82.14
2018-06-22T04:51:02.156Z,82.90
2018-06-22T04:52:02.150Z,82.42
2018-06-22T04:53:02.135Z,82.14
2018-06-22T04:54:02.123Z,81.56
2018-06-22T04:55:02.121Z,81.37
2018-06-22T04:56:02.098Z,82.04
2018-06-22T04:57:02.091Z,81.66
2018-06-22T04:58:02.076Z,81.76
2018-06-22T04:59:02.070Z,81.66
2018-06-22T05:00:02.059Z,81.56
2018-06-22T05:01:02.050Z,81.27
2018-06-22T05:02:02.035Z,81.85
2018-06-22T05:03:02.027Z,81.85
2018-06-22T05:04:02.020Z,81.81
2018-06-22T05:05:02.000Z,82.86
2018-06-22T05:06:01.991Z,83.14
2018-06-22T05:07:01.984Z,83.05
2018-06-22T05:08:01.973Z,84.10
2018-06-22T05:09:01.963Z,84.20
2018-06-22T05:10:01.956Z,84.48
2018-06-22T05:11:01.941Z,85.05
2018-06-22T05:12:01.927Z,85.72
2018-06-22T05:13:01.924Z,86.30
2018-06-22T05:14:01.909Z,86.10
2018-06-22T05:15:01.893Z,86.58
2018-06-22T05:16:01.881Z,86.49
2018-06-22T05:17:01.875Z,87.06
2018-06-22T05:18:01.864Z,86.68
2018-06-22T05:19:01.858Z,86.49
2018-06-22T05:20:01.840Z,86.68
2018-06-22T05:21:01.832Z,86.49
2018-06-22T05:22:01.820Z,85.82
2018-06-22T05:23:01.813Z,85.34
2018-06-22T05:24:01.806Z,85.25
2018-06-22T05:25:01.789Z,85.63
2018-06-22T05:26:01.775Z,85.53
2018-06-22T05:27:01.766Z,85.25
2018-06-22T05:28:01.749Z,85.53
2018-06-22T05:29:01.742Z,85.44
2018-06-22T05:30:01.731Z,85.44
2018-06-22T05:31:01.721Z,85.53
2018-06-22T05:32:01.709Z,85.34
2018-06-22T05:33:01.699Z,85.34
2018-06-22T05:34:01.691Z,85.44
2018-06-22T05:35:01.680Z,85.25
2018-06-22T05:36:01.667Z,85.05
2018-06-22T05:37:01.664Z,85.25
2018-06-22T05:38:01.647Z,85.44
2018-06-22T05:39:01.630Z,85.15
2018-06-22T05:40:01.623Z,85.44
2018-06-22T05:41:01.612Z,85.82
2018-06-22T05:42:01.605Z,85.72
2018-06-22T05:43:01.594Z,85.53
2018-06-22T05:44:01.578Z,85.25
2018-06-22T05:45:01.569Z,85.82
2018-06-22T05:46:01.570Z,86.01
2018-06-22T05:47:01.548Z,85.53
2018-06-22T05:48:01.533Z,85.34
2018-06-22T05:49:01.520Z,85.53
2018-06-22T05:50:01.520Z,85.44
2018-06-22T05:51:01.574Z,85.91
2018-06-22T05:52:01.494Z,85.82
2018-06-22T05:53:01.484Z,85.53
2018-06-22T05:54:01.475Z,85.53
2018-06-22T05:55:01.460Z,85.44
2018-06-22T05:56:01.446Z,85.05
2018-06-22T05:57:01.436Z,85.25
2018-06-22T05:58:01.424Z,85.15
2018-06-22T05:59:01.421Z,84.96
2018-06-22T06:00:01.405Z,85.05
2018-06-22T06:01:01.395Z,85.34
2018-06-22T06:02:01.381Z,85.53
2018-06-22T06:03:01.369Z,85.53
2018-06-22T06:04:01.363Z,85.63
2018-06-22T06:05:01.352Z,85.34
2018-06-22T06:06:01.340Z,85.25
2018-06-22T06:07:01.326Z,86.39
2018-06-22T06:08:01.315Z,85.44
2018-06-22T06:09:01.305Z,85.63
2018-06-22T06:10:01.292Z,86.35
2018-06-22T06:11:01.285Z,87.30
2018-06-22T06:12:01.264Z,87.87
2018-06-22T06:13:01.262Z,87.78
2018-06-22T06:14:01.248Z,87.97
2018-06-22T06:15:01.237Z,87.21
2018-06-22T06:16:01.260Z,87.02
2018-06-22T06:17:01.221Z,87.45
2018-06-22T06:18:01.212Z,87.59
2018-06-22T06:19:01.194Z,87.30
2018-06-22T06:20:01.209Z,87.78
2018-06-22T06:21:01.172Z,86.63
2018-06-22T06:22:01.160Z,86.88
2018-06-22T06:23:01.155Z,87.16
2018-06-22T06:24:01.137Z,87.74
2018-06-22T06:25:01.123Z,88.21
2018-06-22T06:26:01.118Z,88.40
2018-06-22T06:27:01.108Z,88.21
2018-06-22T06:28:01.093Z,88.45
2018-06-22T06:29:01.085Z,87.87
2018-06-22T06:30:01.071Z,87.97
2018-06-22T06:31:01.056Z,86.54
2018-06-22T06:32:01.052Z,85.58
2018-06-22T06:33:01.038Z,85.68
2018-06-22T06:34:01.027Z,85.58
2018-06-22T06:35:01.012Z,85.30
2018-06-22T06:36:01.007Z,85.58
2018-06-22T06:37:00.990Z,84.44
2018-06-22T06:38:00.986Z,84.53
2018-06-22T06:39:00.970Z,84.16
2018-06-22T06:40:00.961Z,84.72
2018-06-22T06:41:00.946Z,85.77
2018-06-22T06:42:00.936Z,86.16
2018-06-22T06:43:00.928Z,85.73
2018-06-22T06:44:00.922Z,86.49
2018-06-22T06:45:00.904Z,85.93
2018-06-22T06:46:00.894Z,86.06
2018-06-22T06:47:00.879Z,85.25
2018-06-22T06:48:00.863Z,84.40
2018-06-22T06:49:00.859Z,84.88
2018-06-22T06:50:00.845Z,84.69
2018-06-22T06:51:00.838Z,84.44
2018-06-22T06:52:00.822Z,84.72
2018-06-22T06:53:00.813Z,85.11
2018-06-22T06:54:00.804Z,84.06
2018-06-22T06:55:00.789Z,85.01
2018-06-22T06:56:00.775Z,84.82
2018-06-22T06:57:00.767Z,85.01
2018-06-22T06:58:00.755Z,84.06
2018-06-22T06:59:00.743Z,84.53
2018-06-22T07:00:00.731Z,83.96
2018-06-22T07:01:00.717Z,83.34
2018-06-22T07:02:00.711Z,82.19
2018-06-22T07:03:00.698Z,82.67
2018-06-22T07:04:00.687Z,82.95
2018-06-22T07:05:00.675Z,83.14
2018-06-22T07:06:00.668Z,82.67
2018-06-22T07:07:00.653Z,82.76
2018-06-22T07:08:00.640Z,82.19
2018-06-22T07:09:00.632Z,82.29
2018-06-22T07:10:00.622Z,82.29
2018-06-22T07:11:00.601Z,80.66
2018-06-22T07:12:00.601Z,80.66
2018-06-22T07:13:00.583Z,81.04
2018-06-22T07:14:00.573Z,81.81
2018-06-22T07:15:00.559Z,81.33
2018-06-22T07:16:00.551Z,81.52
2018-06-22T07:17:00.539Z,81.90
2018-06-22T07:18:00.532Z,81.33
2018-06-22T07:19:00.520Z,82.19
2018-06-22T07:20:00.508Z,82.09
2018-06-22T07:21:00.498Z,81.04
2018-06-22T07:22:00.483Z,81.58
2018-06-22T07:23:00.473Z,81.20
2018-06-22T07:24:00.472Z,80.53
2018-06-22T07:25:00.457Z,80.33
2018-06-22T07:26:00.443Z,80.33
2018-06-22T07:27:00.422Z,80.85
2018-06-22T07:28:00.426Z,81.14
2018-06-22T07:29:00.407Z,80.85
2018-06-22T07:30:00.398Z,80.28
2018-06-22T07:31:00.386Z,80.19
2018-06-22T07:32:00.371Z,80.95
2018-06-22T07:33:00.363Z,80.76
2018-06-22T07:34:00.353Z,79.90
2018-06-22T07:35:00.344Z,79.52
2018-06-22T07:36:00.395Z,79.71
2018-06-22T07:37:00.316Z,79.04
2018-06-22T07:38:00.307Z,79.27
2018-06-22T07:39:00.299Z,79.08
2018-06-22T07:40:00.281Z,78.89
2018-06-22T07:41:00.277Z,78.31
2018-06-22T07:42:00.265Z,78.79
2018-06-22T07:43:00.252Z,78.31
2018-06-22T07:44:00.312Z,78.13
2018-06-22T07:45:00.226Z,79.27
2018-06-22T07:46:00.227Z,78.99
2018-06-22T07:47:00.202Z,78.26
2018-06-22T07:48:00.197Z,77.30
2018-06-22T07:49:00.186Z,77.30
2018-06-22T07:50:00.177Z,76.64
2018-06-22T07:51:00.167Z,77.11
2018-06-22T07:52:00.155Z,78.55
2018-06-22T07:53:00.147Z,77.78
2018-06-22T07:54:00.135Z,76.82
2018-06-22T07:55:00.131Z,77.11
2018-06-22T07:56:00.105Z,76.92
2018-06-22T07:57:00.100Z,77.30
2018-06-22T07:58:00.184Z,77.01
2018-06-22T07:59:00.080Z,77.69
2018-06-22T08:00:00.089Z,76.16
2018-06-22T08:01:00.088Z,75.59
2018-06-22T08:02:00.045Z,75.59
2018-06-22T08:03:00.039Z,75.87
2018-06-22T08:04:00.025Z,76.64
2018-06-22T08:05:00.012Z,76.54
2018-06-22T08:06:00.009Z,75.59
2018-06-22T08:06:59.989Z,76.92
2018-06-22T08:07:59.981Z,77.97
2018-06-22T08:08:59.969Z,78.36
2018-06-22T08:09:59.961Z,77.40
2018-06-22T08:10:59.949Z,76.45
2018-06-22T08:11:59.940Z,76.54
2018-06-22T08:12:59.931Z,75.96
2018-06-22T08:13:59.919Z,76.92
2018-06-22T08:14:59.903Z,77.01
2018-06-22T08:15:59.898Z,77.44
2018-06-22T08:16:59.888Z,76.57
2018-06-22T08:17:59.876Z,76.57
2018-06-22T08:18:59.868Z,76.20
2018-06-22T08:19:59.858Z,75.47
2018-06-22T08:20:59.844Z,74.51
2018-06-22T08:21:59.837Z,75.18
2018-06-22T08:22:59.823Z,74.41
2018-06-22T08:23:59.819Z,74.51
2018-06-22T08:24:59.801Z,73.84
2018-06-22T08:25:59.796Z,75.27
2018-06-22T08:26:59.779Z,74.41
2018-06-22T08:27:59.771Z,73.08
2018-06-22T08:28:59.761Z,73.52
2018-06-22T08:29:59.751Z,74.22
2018-06-22T08:30:59.744Z,73.71
2018-06-22T08:31:59.732Z,73.61
2018-06-22T08:32:59.717Z,73.61
2018-06-22T08:33:59.708Z,73.71
2018-06-22T08:34:59.703Z,74.48
2018-06-22T08:35:59.685Z,73.94
2018-06-22T08:36:59.678Z,73.46
2018-06-22T08:37:59.671Z,74.16
2018-06-22T08:38:59.657Z,72.34
2018-06-22T08:39:59.647Z,71.58
2018-06-22T08:40:59.635Z,71.11
2018-06-22T08:41:59.780Z,70.34
2018-06-22T08:42:59.612Z,70.53
2018-06-22T08:43:59.604Z,69.95
2018-06-22T08:44:59.596Z,70.05
2018-06-22T08:45:59.590Z,70.68
2018-06-22T08:46:59.578Z,71.64
2018-06-22T08:47:59.566Z,72.60
2018-06-22T08:48:59.624Z,72.92
2018-06-22T08:49:59.546Z,73.30
2018-06-22T08:50:59.539Z,74.07
2018-06-22T08:51:59.528Z,73.21
2018-06-22T08:52:59.517Z,70.81
2018-06-22T08:53:59.511Z,70.95
2018-06-22T08:54:59.499Z,71.04
2018-06-22T08:55:59.493Z,70.85
2018-06-22T08:56:59.481Z,69.03
2018-06-22T08:57:59.468Z,69.99
2018-06-22T08:58:59.462Z,70.79
2018-06-22T08:59:59.450Z,69.64
2018-06-22T09:00:59.445Z,68.68
2018-06-22T09:01:59.432Z,68.49
2018-06-22T09:02:59.421Z,68.49
2018-06-22T09:03:59.409Z,68.30
2018-06-22T09:04:59.403Z,68.87
2018-06-22T09:05:59.393Z,69.17
2018-06-22T09:06:59.385Z,68.78
2018-06-22T09:07:59.371Z,68.97
2018-06-22T09:08:59.363Z,69.83
2018-06-22T09:09:59.354Z,70.21
2018-06-22T09:10:59.342Z,69.32
2018-06-22T09:11:59.333Z,69.23
2018-06-22T09:12:59.324Z,69.51
2018-06-22T09:13:59.316Z,69.13
2018-06-22T09:14:59.310Z,69.03
2018-06-22T09:15:59.298Z,68.27
2018-06-22T09:16:59.286Z,68.27
2018-06-22T09:17:59.279Z,68.78
2018-06-22T09:18:59.269Z,69.51
2018-06-22T09:19:59.259Z,68.46
2018-06-22T09:20:59.251Z,69.80
2018-06-22T09:21:59.241Z,69.13
2018-06-22T09:22:59.229Z,70.09
2018-06-22T09:23:59.221Z,70.76
2018-06-22T09:24:59.212Z,70.24
2018-06-22T09:25:59.205Z,70.47
2018-06-22T09:26:59.194Z,70.09
2018-06-22T09:27:59.182Z,70.18
2018-06-22T09:28:59.176Z,69.89
2018-06-22T09:29:59.176Z,69.51
2018-06-22T09:30:59.153Z,68.78
2018-06-22T09:31:59.145Z,68.68
2018-06-22T09:32:59.136Z,69.17
2018-06-22T09:33:59.122Z,68.40
2018-06-22T09:34:59.118Z,67.72
2018-06-22T09:35:59.110Z,68.24
2018-06-22T09:36:59.096Z,68.14
2018-06-22T09:37:59.088Z,66.61
2018-06-22T09:38:59.077Z,67.28
2018-06-22T09:39:59.069Z,68.33
2018-06-22T09:40:59.062Z,66.32
2018-06-22T09:41:59.049Z,67.66
2018-06-22T09:42:59.052Z,68.14
2018-06-22T09:43:59.034Z,66.42
2018-06-22T09:44:59.073Z,64.59
2018-06-22T09:45:59.009Z,66.03
2018-06-22T09:46:59.007Z,65.36
2018-06-22T09:47:58.993Z,64.31
2018-06-22T09:48:58.987Z,64.22
2018-06-22T09:49:58.979Z,64.02
2018-06-22T09:50:58.967Z,63.83
2018-06-22T09:51:58.961Z,65.84
2018-06-22T09:52:58.969Z,65.65
2018-06-22T09:53:58.938Z,64.98
2018-06-22T09:54:58.930Z,64.12
2018-06-22T09:55:58.920Z,62.49
2018-06-22T09:56:58.912Z,64.31
2018-06-22T09:57:58.901Z,62.59
2018-06-22T09:58:58.889Z,63.48
2018-06-22T09:59:58.883Z,64.15
2018-06-22T10:00:58.884Z,63.00
2018-06-22T10:01:58.867Z,61.82
2018-06-22T10:02:58.858Z,62.49
2018-06-22T10:03:58.852Z,65.20
2018-06-22T10:04:58.840Z,64.15
2018-06-22T10:05:58.918Z,62.90
2018-06-22T10:06:58.821Z,62.33
2018-06-22T10:07:58.819Z,65.52
2018-06-22T10:08:58.799Z,62.26
2018-06-22T10:09:58.791Z,61.02
2018-06-22T10:10:58.787Z,61.02
2018-06-22T10:11:58.779Z,60.25
2018-06-22T10:12:58.767Z,61.37
2018-06-22T10:13:58.760Z,62.04
2018-06-22T10:14:58.753Z,61.08
2018-06-22T10:15:58.738Z,61.37
2018-06-22T10:16:58.731Z,61.18
2018-06-22T10:17:58.722Z,60.89
2018-06-22T10:18:58.716Z,62.04
2018-06-22T10:19:58.710Z,63.48
2018-06-22T10:20:58.696Z,62.26
2018-06-22T10:21:58.693Z,61.02
2018-06-22T10:22:58.677Z,61.98
2018-06-22T10:23:58.671Z,60.53
2018-06-22T10:24:58.663Z,61.69
2018-06-22T10:25:58.651Z,61.78
2018-06-22T10:26:58.680Z,58.23
2018-06-22T10:27:58.633Z,59.77
2018-06-22T10:28:58.624Z,57.18
2018-06-22T10:29:58.614Z,58.23
2018-06-22T10:30:58.611Z,57.65
2018-06-22T10:31:58.601Z,59.38
2018-06-22T10:32:58.592Z,59.67
2018-06-22T10:33:58.597Z,59.00
2018-06-22T10:34:58.567Z,57.92
2018-06-22T10:35:58.566Z,57.75
2018-06-22T10:36:58.562Z,58.91
2018-06-22T10:37:58.548Z,58.71
2018-06-22T10:38:58.545Z,58.62
2018-06-22T10:39:58.534Z,58.81
2018-06-22T10:40:58.521Z,57.46
2018-06-22T10:41:58.511Z,57.85
2018-06-22T10:42:58.502Z,57.46
2018-06-22T10:43:58.493Z,56.89
2018-06-22T10:44:58.499Z,55.93
2018-06-22T10:45:58.510Z,56.89
2018-06-22T10:46:58.466Z,57.08
2018-06-22T10:47:58.462Z,56.79
2018-06-22T10:48:58.450Z,58.14
2018-06-22T10:49:58.445Z,56.22
2018-06-22T10:50:58.436Z,55.26
2018-06-22T10:51:58.430Z,55.64
2018-06-22T10:52:58.420Z,55.16
2018-06-22T10:53:58.407Z,55.45
2018-06-22T10:54:58.405Z,55.64
2018-06-22T10:55:58.393Z,55.35
2018-06-22T10:56:58.383Z,54.78
2018-06-22T10:57:58.377Z,53.72
2018-06-22T10:58:58.369Z,53.63
2018-06-22T10:59:58.392Z,53.91
2018-06-22T11:00:58.347Z,52.86
2018-06-22T11:01:58.343Z,54.33
2018-06-22T11:02:58.330Z,54.13
2018-06-22T11:03:58.326Z,52.09
2018-06-22T11:04:58.315Z,54.01
2018-06-22T11:05:58.312Z,54.49
2018-06-22T11:06:58.297Z,54.01
2018-06-22T11:07:58.297Z,55.07
2018-06-22T11:08:58.283Z,54.88
2018-06-22T11:09:58.267Z,54.68
2018-06-22T11:10:58.264Z,54.21
2018-06-22T11:11:58.258Z,54.01
2018-06-22T11:12:58.248Z,53.82
2018-06-22T11:13:58.253Z,54.21
2018-06-22T11:14:58.236Z,53.79
2018-06-22T11:15:58.224Z,54.27
2018-06-22T11:16:58.228Z,51.49
2018-06-22T11:17:58.208Z,51.68
2018-06-22T11:18:58.197Z,51.68
2018-06-22T11:19:58.189Z,51.20
2018-06-22T11:20:58.177Z,51.78
2018-06-22T11:21:58.171Z,51.68
2018-06-22T11:22:58.161Z,52.93
2018-06-22T11:23:58.149Z,53.89
2018-06-22T11:24:58.139Z,53.58
2018-06-22T11:25:58.131Z,52.74
2018-06-22T11:26:58.122Z,52.52
2018-06-22T11:27:58.114Z,52.81
2018-06-22T11:28:58.108Z,53.03
2018-06-22T11:29:58.098Z,53.12
2018-06-22T11:30:58.092Z,52.16
2018-06-22T11:31:58.078Z,52.86
2018-06-22T11:32:58.074Z,51.71
2018-06-22T11:33:58.114Z,51.51
2018-06-22T11:34:58.053Z,52.12
2018-06-22T11:35:58.048Z,52.02
2018-06-22T11:36:58.042Z,52.60
2018-06-22T11:37:58.027Z,52.98
2018-06-22T11:38:58.019Z,51.16
2018-06-22T11:39:58.013Z,50.99
2018-06-22T11:40:58.000Z,48.79
2018-06-22T11:41:57.994Z,48.49
2018-06-22T11:42:57.981Z,48.69
2018-06-22T11:43:57.975Z,49.17
2018-06-22T11:44:57.965Z,49.84
2018-06-22T11:45:57.960Z,49.84
2018-06-22T11:46:57.949Z,49.55
2018-06-22T11:47:57.944Z,48.79
2018-06-22T11:48:57.933Z,50.44
2018-06-22T11:49:57.926Z,48.90
2018-06-22T11:50:57.914Z,48.59
2018-06-22T11:51:57.908Z,48.11
2018-06-22T11:52:57.903Z,47.05
2018-06-22T11:53:57.897Z,48.02
2018-06-22T11:54:57.886Z,49.36
2018-06-22T11:55:57.877Z,46.77
2018-06-22T11:56:57.872Z,48.52
2018-06-22T11:57:57.857Z,45.73
2018-06-22T11:58:57.849Z,45.52
2018-06-22T11:59:57.844Z,45.61
2018-06-22T12:00:57.831Z,44.56
2018-06-22T12:01:57.825Z,44.77
2018-06-22T12:02:57.815Z,46.19
2018-06-22T12:03:57.813Z,44.68
2018-06-22T12:04:57.794Z,46.59
2018-06-22T12:05:57.791Z,47.75
2018-06-22T12:06:57.788Z,48.23
2018-06-22T12:07:57.778Z,46.79
2018-06-22T12:08:57.768Z,47.36
2018-06-22T12:09:57.758Z,46.41
2018-06-22T12:10:57.754Z,45.25
2018-06-22T12:11:57.742Z,45.06
2018-06-22T12:12:57.736Z,44.48
2018-06-22T12:13:57.780Z,43.62
2018-06-22T12:14:57.722Z,44.58
2018-06-22T12:15:57.714Z,46.02
2018-06-22T12:16:57.713Z,48.43
2018-06-22T12:17:57.706Z,44.89
2018-06-22T12:18:57.756Z,44.89
2018-06-22T12:19:57.678Z,44.22
2018-06-22T12:20:57.838Z,43.91
2018-06-22T12:21:57.666Z,44.77
2018-06-22T12:22:57.656Z,44.58
2018-06-22T12:23:57.709Z,41.89
2018-06-22T12:24:57.635Z,42.39
2018-06-22T12:25:57.634Z,42.00
2018-06-22T12:26:57.631Z,41.62
2018-06-22T12:27:57.617Z,42.39
2018-06-22T12:28:57.605Z,42.58
2018-06-22T12:29:57.603Z,41.62
2018-06-22T12:30:57.598Z,41.60
2018-06-22T12:31:57.584Z,40.06
2018-06-22T12:32:57.579Z,39.29
2018-06-22T12:33:57.566Z,38.24
2018-06-22T12:34:57.562Z,40.35
2018-06-22T12:35:57.556Z,42.30
2018-06-22T12:36:57.544Z,42.00
2018-06-22T12:37:57.536Z,41.24
2018-06-22T12:38:57.527Z,41.82
2018-06-22T12:39:57.519Z,40.85
2018-06-22T12:40:57.511Z,41.14
2018-06-22T12:41:57.510Z,40.78
2018-06-22T12:42:57.497Z,40.78
2018-06-22T12:43:57.493Z,42.39
2018-06-22T12:44:57.522Z,41.82
2018-06-22T12:45:57.480Z,41.74
2018-06-22T12:46:57.472Z,45.20
2018-06-22T12:47:57.476Z,41.93
2018-06-22T12:48:57.451Z,41.26
2018-06-22T12:49:57.449Z,40.68
2018-06-22T12:50:57.437Z,41.35
2018-06-22T12:51:57.432Z,40.49